Time;durP1;ratioP1;P1;durP2;ratioP2;P2;SDS_P1;SDS_P2;PMS_P1;PMS_P2;Temp;Humidity;BMP_temperature;BMP_pressure;BME280_temperature;BME280_humidity;BME280_pressure;Samples;Min_cycle;Max_cycle;Signal;HPM_P1;HPM_P2
2021/05/20 00:00:46;;;;;;;;;;;;;;;21.34;45.67;101867.47;2216364;39;113589;-54
2021/05/20 00:02:20;;;;;;;;;;;;;;;21.34;45.40;101873.09;2211039;39;113553;-54
2021/05/20 00:03:52;;;;;;;;;;;;;;;21.32;45.58;101886.59;2212255;39;113775;-54
2021/05/20 00:05:24;;;;;;;;;;;;;;;21.32;45.79;101880.97;2216624;39;113641;-54
2021/05/20 00:06:55;;;;;;;;;;;;;;;21.30;45.70;101878.44;2212104;39;113593;-54
2021/05/20 00:08:27;;;;;;;;;;;;;;;21.32;45.65;101880.13;2215240;39;113750;-54
2021/05/20 00:12:28;;;;;;;;;;;;;;;21.30;45.78;101872.00;2213055;39;113641;-54
2021/05/20 00:14:14;;;;;;;;;;;;;;;21.26;46.09;101871.72;2214478;39;113782;-55
2021/05/20 00:15:46;;;;;;;;;;;;;;;21.30;45.97;101872.00;2205085;39;113852;-54
2021/05/20 00:17:18;;;;;;;;;;;;;;;21.28;46.48;101874.25;2215351;39;113743;-59
2021/05/20 00:18:50;;;;;;;;;;;;;;;21.27;46.54;101869.75;2217347;39;113833;-55
2021/05/20 00:20:21;;;;;;;;;;;;;;;21.27;46.25;101870.59;2212347;39;114244;-55
2021/05/20 00:21:53;;;;;;;;;;;;;;;21.27;46.32;101869.75;2206899;39;114092;-55
2021/05/20 00:23:24;;;;;;;;;;;;;;;21.27;46.11;101870.59;2212068;39;115307;-54
2021/05/20 00:24:56;;;;;;;;;;;;;;;21.27;46.21;101870.59;2216353;39;114297;-55
2021/05/20 00:26:29;;;;;;;;;;;;;;;21.25;46.72;101869.22;2217549;39;114848;-54
2021/05/20 00:28:00;;;;;;;;;;;;;;;21.26;46.34;101870.88;2216469;39;113984;-54
2021/05/20 00:29:32;;;;;;;;;;;;;;;21.25;46.75;101863.59;2217672;39;115433;-54
2021/05/20 00:33:30;;;;;;;;;;;;;;;21.27;46.26;101864.97;2212283;39;113984;-54
2021/05/20 00:35:02;;;;;;;;;;;;;;;21.26;46.66;101865.25;2216755;39;114116;-53
2021/05/20 00:36:36;;;;;;;;;;;;;;;21.25;46.64;101866.41;2217242;39;113994;-54
2021/05/20 00:38:09;;;;;;;;;;;;;;;21.26;46.59;101871.72;2213706;39;113927;-54
2021/05/20 00:39:45;;;;;;;;;;;;;;;21.24;46.94;101873.16;2218149;39;114757;-54
2021/05/20 00:41:17;;;;;;;;;;;;;;;21.25;46.32;101872.03;2216053;39;115450;-54
2021/05/20 00:42:48;;;;;;;;;;;;;;;21.23;46.46;101868.66;2217049;39;114843;-56
2021/05/20 00:44:20;;;;;;;;;;;;;;;21.25;46.57;101863.59;2219794;39;115329;-54
2021/05/20 00:45:51;;;;;;;;;;;;;;;21.24;46.53;101862.75;2216581;39;115760;-54
2021/05/20 00:47:26;;;;;;;;;;;;;;;21.22;46.99;101870.63;2217050;39;114629;-54
2021/05/20 00:48:58;;;;;;;;;;;;;;;21.23;46.74;101871.47;2217072;39;115556;-54
2021/05/20 00:50:29;;;;;;;;;;;;;;;21.24;46.79;101864.72;2217295;39;115436;-54
2021/05/20 00:52:04;;;;;;;;;;;;;;;21.23;46.79;101863.03;2216993;39;115524;-54
2021/05/20 00:53:42;;;;;;;;;;;;;;;21.21;47.13;101866.13;2211950;39;115678;-54
2021/05/20 00:55:21;;;;;;;;;;;;;;;21.22;46.89;101865.00;2216358;39;115907;-54
2021/05/20 00:56:52;;;;;;;;;;;;;;;21.22;47.24;101866.97;2217516;39;115483;-54
2021/05/20 00:58:24;;;;;;;;;;;;;;;21.22;47.11;101866.97;2216238;39;115286;-54
2021/05/20 01:00:02;;;;;;;;;;;;;;;21.22;46.84;101873.44;2217242;39;114616;-54
2021/05/20 01:01:34;;;;;;;;;;;;;;;21.21;46.81;101870.94;2215850;39;116055;-54
2021/05/20 01:03:05;;;;;;;;;;;;;;;21.19;47.33;101871.22;2216935;39;114926;-54
2021/05/20 01:04:37;;;;;;;;;;;;;;;21.21;46.75;101874.56;2217595;39;115447;-54
2021/05/20 01:06:12;;;;;;;;;;;;;;;21.20;46.93;101869.25;2219510;39;115579;-54
2021/05/20 01:07:43;;;;;;;;;;;;;;;21.19;47.21;101871.22;2217450;39;113886;-54
2021/05/20 01:09:15;;;;;;;;;;;;;;;21.17;47.27;101873.47;2216575;39;113696;-54
2021/05/20 01:10:47;;;;;;;;;;;;;;;21.18;47.14;101874.31;2211491;39;113823;-55
2021/05/20 01:12:19;;;;;;;;;;;;;;;21.18;46.69;101868.69;2217470;39;113746;-54
2021/05/20 01:13:51;;;;;;;;;;;;;;;21.19;47.03;101874.03;2217451;39;113837;-55
2021/05/20 01:15:24;;;;;;;;;;;;;;;21.17;47.05;101864.19;2211781;39;113692;-55
2021/05/20 01:16:55;;;;;;;;;;;;;;;21.18;47.20;101871.50;2216861;39;113818;-55
2021/05/20 01:18:27;;;;;;;;;;;;;;;21.15;46.58;101867.31;2216754;39;113641;-55
2021/05/20 01:20:00;;;;;;;;;;;;;;;21.12;47.28;101865.03;2215929;39;113817;-54
2021/05/20 01:21:35;;;;;;;;;;;;;;;21.14;47.09;101867.59;2215903;39;113754;-54
2021/05/20 01:23:07;;;;;;;;;;;;;;;21.13;47.46;101863.94;2217275;39;113586;-54
2021/05/20 01:24:40;;;;;;;;;;;;;;;21.14;47.16;101862.81;2217513;39;113643;-54
2021/05/20 01:26:12;;;;;;;;;;;;;;;21.15;47.32;101863.66;2217407;39;113806;-54
2021/05/20 01:27:45;;;;;;;;;;;;;;;21.14;47.41;101862.81;2212561;39;114073;-54
2021/05/20 01:29:17;;;;;;;;;;;;;;;21.13;47.42;101854.66;2211124;39;114884;-54
2021/05/20 01:30:53;;;;;;;;;;;;;;;21.14;47.71;101853.53;2215565;39;115477;-55
2021/05/20 01:32:24;;;;;;;;;;;;;;;21.15;46.95;101858.88;2211677;39;114762;-54
2021/05/20 01:33:57;;;;;;;;;;;;;;;21.11;46.36;101866.19;2217481;39;114061;-61
2021/05/20 01:35:28;;;;;;;;;;;;;;;21.17;46.75;101862.22;2217595;39;114808;-54
2021/05/20 01:37:00;;;;;;;;;;;;;;;21.13;46.96;101861.13;2210958;39;113890;-54
2021/05/20 01:40:10;;;;;;;;;;;;;;;21.11;46.94;101863.38;2212439;39;115287;-54
2021/05/20 01:41:41;;;;;;;;;;;;;;;21.09;46.70;101854.38;2217031;39;115091;-54
2021/05/20 01:43:13;;;;;;;;;;;;;;;21.06;46.96;101857.78;2217160;39;114195;-54
2021/05/20 01:44:47;;;;;;;;;;;;;;;21.09;46.99;101856.34;2216261;39;115008;-54
2021/05/20 01:46:19;;;;;;;;;;;;;;;21.06;47.00;101854.97;2207411;39;114118;-55
2021/05/20 01:47:51;;;;;;;;;;;;;;;21.07;46.75;101858.63;2215039;39;114648;-54
2021/05/20 01:49:22;;;;;;;;;;;;;;;21.05;46.99;101853.28;2215927;39;113887;-55
2021/05/20 01:51:00;;;;;;;;;;;;;;;21.05;47.06;101852.44;2209991;39;115363;-54
2021/05/20 01:54:42;;;;;;;;;;;;;;;21.03;47.21;101847.09;2212193;39;114051;-54
2021/05/20 01:56:15;;;;;;;;;;;;;;;21.04;47.04;101839.50;2216984;39;115908;-55
2021/05/20 01:57:46;;;;;;;;;;;;;;;21.04;47.10;101843.16;2213450;39;115451;-55
2021/05/20 01:59:18;;;;;;;;;;;;;;;21.03;47.18;101847.09;2215264;39;115463;-54
2021/05/20 02:00:50;;;;;;;;;;;;;;;21.03;46.74;101844.28;2217423;39;115839;-53
2021/05/20 02:02:26;;;;;;;;;;;;;;;21.04;46.73;101843.16;2210108;39;115810;-55
2021/05/20 02:03:58;;;;;;;;;;;;;;;21.06;46.85;101828.84;2215506;39;115525;-54
2021/05/20 02:05:32;;;;;;;;;;;;;;;21.05;46.91;101835.56;2217153;39;115700;-54
2021/05/20 02:07:03;;;;;;;;;;;;;;;21.02;46.65;101833.34;2212632;39;114637;-54
2021/05/20 02:08:36;;;;;;;;;;;;;;;21.02;47.18;101830.53;2214707;39;114737;-55
2021/05/20 02:10:08;;;;;;;;;;;;;;;21.03;46.95;101835.03;2214069;39;115791;-54
2021/05/20 02:11:39;;;;;;;;;;;;;;;21.03;46.62;101821.00;2213204;39;115486;-54
2021/05/20 02:13:11;;;;;;;;;;;;;;;21.00;46.95;101830.81;2218664;39;116264;-54
2021/05/20 02:14:43;;;;;;;;;;;;;;;21.01;46.75;101829.69;2217429;39;113916;-56
2021/05/20 02:16:19;;;;;;;;;;;;;;;20.99;47.15;101829.13;2216351;39;113564;-57
2021/05/20 02:17:53;;;;;;;;;;;;;;;20.99;46.90;101822.69;2215160;39;113605;-54
2021/05/20 02:19:25;;;;;;;;;;;;;;;21.00;47.13;101821.56;2214879;39;114736;-54
2021/05/20 02:20:56;;;;;;;;;;;;;;;21.01;46.77;101812.84;2206890;39;113976;-54
2021/05/20 02:22:28;;;;;;;;;;;;;;;20.99;47.01;101825.47;2211518;39;113813;-54
2021/05/20 02:24:00;;;;;;;;;;;;;;;20.97;47.32;101822.16;2216748;39;113804;-54
2021/05/20 02:25:31;;;;;;;;;;;;;;;21.00;46.98;101828.00;2212738;39;113878;-54
2021/05/20 02:27:03;;;;;;;;;;;;;;;21.01;46.96;101815.66;2207301;39;114127;-55
2021/05/20 02:28:35;;;;;;;;;;;;;;;21.01;46.88;101820.44;2205291;39;114072;-55
2021/05/20 02:30:09;;;;;;;;;;;;;;;21.02;46.71;101811.72;2213074;39;115287;-55
2021/05/20 02:31:40;;;;;;;;;;;;;;;20.98;47.04;101813.44;2215904;39;113796;-54
2021/05/20 02:33:15;;;;;;;;;;;;;;;20.99;47.05;101812.28;2210207;39;113916;-55
2021/05/20 02:34:46;;;;;;;;;;;;;;;20.97;47.05;101824.94;2214347;39;114453;-55
2021/05/20 02:36:18;;;;;;;;;;;;;;;20.96;47.08;101826.06;2213555;39;115181;-54
2021/05/20 02:37:50;;;;;;;;;;;;;;;20.96;47.10;101818.50;2215683;39;114791;-55
2021/05/20 02:39:21;;;;;;;;;;;;;;;20.96;47.35;101810.06;2216206;39;114913;-54
2021/05/20 02:40:53;;;;;;;;;;;;;;;20.97;47.15;101808.09;2213216;39;113981;-54
2021/05/20 02:42:25;;;;;;;;;;;;;;;20.97;47.15;101808.94;2214229;39;114840;-54
2021/05/20 02:43:57;;;;;;;;;;;;;;;20.94;47.21;101803.06;2216525;39;114107;-54
2021/05/20 02:45:29;;;;;;;;;;;;;;;20.95;47.62;101805.56;2214749;39;113771;-55
2021/05/20 02:47:00;;;;;;;;;;;;;;;20.94;47.21;101815.13;2216037;39;114771;-54
2021/05/20 02:48:32;;;;;;;;;;;;;;;20.95;47.24;101804.72;2211351;39;114202;-55
2021/05/20 02:50:04;;;;;;;;;;;;;;;20.92;47.42;101803.34;2217325;39;114029;-54
2021/05/20 02:51:36;;;;;;;;;;;;;;;20.93;47.57;101810.66;2210333;39;117367;-54
2021/05/20 02:53:08;;;;;;;;;;;;;;;20.91;48.01;101807.28;2214553;39;114871;-54
2021/05/20 02:54:40;;;;;;;;;;;;;;;20.91;47.86;101809.25;2213315;39;115074;-54
2021/05/20 02:56:12;;;;;;;;;;;;;;;20.90;47.96;101797.16;2214076;39;115519;-59
2021/05/20 02:57:54;;;;;;;;;;;;;;;20.89;47.85;101803.94;2214284;39;115552;-55
2021/05/20 02:59:33;;;;;;;;;;;;;;;20.90;47.73;101801.94;2217177;39;115883;-54
2021/05/20 03:01:05;;;;;;;;;;;;;;;20.91;47.95;101796.03;2216191;39;116237;-54
2021/05/20 03:02:37;;;;;;;;;;;;;;;20.88;47.43;101792.97;2213321;39;115784;-55
2021/05/20 03:04:08;;;;;;;;;;;;;;;20.88;47.43;101790.16;2217127;39;114962;-54
2021/05/20 03:05:40;;;;;;;;;;;;;;;20.89;47.94;101791.84;2216821;39;115487;-54
2021/05/20 03:07:12;;;;;;;;;;;;;;;20.88;47.80;101787.38;2210354;39;115472;-54
2021/05/20 03:08:43;;;;;;;;;;;;;;;20.90;48.01;101785.94;2214879;39;115479;-54
2021/05/20 03:10:15;;;;;;;;;;;;;;;20.88;48.08;101795.78;2217320;39;116459;-54
2021/05/20 03:11:47;;;;;;;;;;;;;;;20.88;47.80;101792.97;2212323;39;115487;-54
2021/05/20 03:13:18;;;;;;;;;;;;;;;20.88;47.78;101793.81;2213508;39;115077;-55
2021/05/20 03:14:50;;;;;;;;;;;;;;;20.89;47.90;101803.09;2212164;39;115506;-55
2021/05/20 03:16:21;;;;;;;;;;;;;;;20.85;47.93;101789.59;2207375;39;115554;-54
2021/05/20 03:17:53;;;;;;;;;;;;;;;20.82;47.90;101784.59;2211922;39;115625;-54
2021/05/20 03:19:24;;;;;;;;;;;;;;;20.83;47.90;101791.03;2214594;39;113871;-54
2021/05/20 03:20:56;;;;;;;;;;;;;;;20.86;47.98;101790.44;2217332;39;113573;-54
2021/05/20 03:22:28;;;;;;;;;;;;;;;20.83;47.63;101793.84;2215050;39;113968;-55
2021/05/20 03:23:59;;;;;;;;;;;;;;;20.84;47.66;101789.91;2216981;39;113669;-55
2021/05/20 03:25:34;;;;;;;;;;;;;;;20.81;47.71;101785.72;2212398;39;113723;-54
2021/05/20 03:27:06;;;;;;;;;;;;;;;20.81;47.47;101785.72;2216903;39;114167;-55
2021/05/20 03:28:38;;;;;;;;;;;;;;;20.82;47.32;101784.59;2212814;39;113658;-55
2021/05/20 03:30:10;;;;;;;;;;;;;;;20.83;47.48;101785.44;2206710;39;113890;-62
2021/05/20 03:31:42;;;;;;;;;;;;;;;20.84;47.77;101778.69;2209671;39;113666;-54
2021/05/20 03:33:13;;;;;;;;;;;;;;;20.82;47.32;101787.38;2213263;39;113821;-54
2021/05/20 03:34:45;;;;;;;;;;;;;;;20.82;47.38;101784.59;2212270;39;113738;-54
2021/05/20 03:36:17;;;;;;;;;;;;;;;20.81;47.70;101780.09;2216759;39;114574;-54
2021/05/20 03:37:48;;;;;;;;;;;;;;;20.79;47.63;101795.56;2216695;39;114152;-54
2021/05/20 03:39:20;;;;;;;;;;;;;;;20.77;47.63;101793.03;2215656;39;113974;-55
2021/05/20 03:40:51;;;;;;;;;;;;;;;20.77;47.79;101793.03;2216711;39;113633;-54
2021/05/20 03:42:23;;;;;;;;;;;;;;;20.76;47.33;101794.16;2216956;39;115285;-57
2021/05/20 03:43:55;;;;;;;;;;;;;;;20.76;47.68;101782.91;2216600;39;114005;-54
2021/05/20 03:45:32;;;;;;;;;;;;;;;20.76;47.72;101790.50;2215756;39;114917;-54
2021/05/20 03:47:04;;;;;;;;;;;;;;;20.73;47.33;101783.50;2213579;39;114840;-54
2021/05/20 03:48:36;;;;;;;;;;;;;;;20.72;47.51;101787.44;2215965;39;114988;-54
2021/05/20 03:50:08;;;;;;;;;;;;;;;20.71;47.42;101782.97;2217597;39;114848;-54
2021/05/20 03:51:39;;;;;;;;;;;;;;;20.71;47.49;101780.16;2215265;39;114870;-54
2021/05/20 03:53:11;;;;;;;;;;;;;;;20.68;47.38;101769.50;2217382;39;115415;-54
2021/05/20 03:54:43;;;;;;;;;;;;;;;20.70;47.35;101774.84;2217627;39;114798;-54
2021/05/20 03:56:15;;;;;;;;;;;;;;;20.69;47.34;101764.72;2215010;39;114290;-55
2021/05/20 03:57:48;;;;;;;;;;;;;;;20.67;47.27;101761.38;2211634;39;113869;-54
2021/05/20 03:59:20;;;;;;;;;;;;;;;20.65;47.60;101764.47;2214089;39;115001;-55
2021/05/20 04:00:52;;;;;;;;;;;;;;;20.69;47.48;101759.94;2214090;39;114888;-54
2021/05/20 04:02:23;;;;;;;;;;;;;;;20.67;47.60;101756.56;2216808;39;114924;-56
2021/05/20 04:03:55;;;;;;;;;;;;;;;20.68;47.28;101752.66;2215387;39;115779;-54
2021/05/20 04:05:26;;;;;;;;;;;;;;;20.68;47.48;101746.19;2213823;39;115584;-54
2021/05/20 04:06:58;;;;;;;;;;;;;;;20.64;47.25;101750.72;2217443;39;115517;-54
2021/05/20 04:08:30;;;;;;;;;;;;;;;20.64;47.49;101745.94;2215354;39;115690;-54
2021/05/20 04:10:03;;;;;;;;;;;;;;;20.64;47.57;101742.28;2215963;39;115570;-54
2021/05/20 04:11:35;;;;;;;;;;;;;;;20.62;47.62;101733.31;2215587;39;115583;-54
2021/05/20 04:13:06;;;;;;;;;;;;;;;20.63;47.38;101737.78;2210045;39;115414;-54
2021/05/20 04:14:38;;;;;;;;;;;;;;;20.64;47.49;101742.28;2213079;39;115633;-54
2021/05/20 04:16:14;;;;;;;;;;;;;;;20.62;47.60;101736.97;2217114;39;115971;-54
2021/05/20 04:17:46;;;;;;;;;;;;;;;20.59;47.73;101734.72;2215074;39;115545;-54
2021/05/20 04:19:18;;;;;;;;;;;;;;;20.61;47.55;101738.09;2214532;39;116406;-54
2021/05/20 04:20:50;;;;;;;;;;;;;;;20.61;47.34;101732.50;2217645;39;114540;-54
2021/05/20 04:22:22;;;;;;;;;;;;;;;20.62;47.67;101736.97;2213644;39;115523;-54
2021/05/20 04:23:54;;;;;;;;;;;;;;;20.63;47.31;101733.03;2218504;39;114505;-57
2021/05/20 04:25:28;;;;;;;;;;;;;;;20.61;47.36;101729.69;2215561;39;113880;-54
2021/05/20 04:27:05;;;;;;;;;;;;;;;20.60;47.31;101729.97;2211568;39;113564;-54
2021/05/20 04:28:36;;;;;;;;;;;;;;;20.60;47.42;101728.00;2217850;39;114275;-54
2021/05/20 04:30:08;;;;;;;;;;;;;;;20.61;47.86;101724.06;2217338;39;113871;-55
2021/05/20 04:31:40;;;;;;;;;;;;;;;20.62;47.81;101722.09;2214766;39;113925;-55
2021/05/20 04:33:24;;;;;;;;;;;;;;;20.62;47.97;101722.94;2214961;39;113646;-54
2021/05/20 04:34:57;;;;;;;;;;;;;;;20.61;48.12;101724.06;2210353;39;113819;-54
2021/05/20 04:36:28;;;;;;;;;;;;;;;20.62;48.45;101725.75;2215183;39;113624;-54
2021/05/20 04:38:01;;;;;;;;;;;;;;;20.64;48.07;101728.25;2212596;39;113706;-55
2021/05/20 04:39:33;;;;;;;;;;;;;;;20.65;48.08;101727.97;2217489;39;113756;-54
2021/05/20 04:41:05;;;;;;;;;;;;;;;20.68;48.33;101732.16;2213863;39;113918;-54
2021/05/20 04:42:36;;;;;;;;;;;;;;;20.72;48.20;101722.00;2214392;39;113784;-54
2021/05/20 04:44:08;;;;;;;;;;;;;;;20.78;48.00;101713.28;2216627;39;113567;-54
2021/05/20 04:45:44;;;;;;;;;;;;;;;20.83;48.11;101710.44;2216275;39;113932;-56
2021/05/20 04:47:37;;;;;;;;;;;;;;;20.88;48.33;101719.94;2214912;39;114003;-54
2021/05/20 04:49:11;;;;;;;;;;;;;;;20.90;48.40;101714.84;2212159;39;113923;-57
2021/05/20 04:50:43;;;;;;;;;;;;;;;20.94;48.50;101718.78;2212463;39;115429;-54
2021/05/20 04:52:15;;;;;;;;;;;;;;;20.98;48.69;101725.50;2210340;39;115225;-55
2021/05/20 04:53:47;;;;;;;;;;;;;;;21.01;48.53;101713.66;2215281;39;113915;-54
2021/05/20 04:55:18;;;;;;;;;;;;;;;21.05;48.34;101721.22;2217632;39;115324;-54
2021/05/20 04:56:50;;;;;;;;;;;;;;;21.09;48.62;101716.69;2211688;39;114903;-55
2021/05/20 04:58:22;;;;;;;;;;;;;;;21.13;48.26;101716.97;2214143;39;114757;-55
2021/05/20 04:59:53;;;;;;;;;;;;;;;21.18;48.73;101720.56;2216582;39;113812;-54
2021/05/20 05:01:25;;;;;;;;;;;;;;;21.23;48.51;101716.88;2209069;39;113915;-55
2021/05/20 05:02:57;;;;;;;;;;;;;;;21.27;48.83;101715.16;2212404;39;114933;-55
2021/05/20 05:04:28;;;;;;;;;;;;;;;21.33;48.38;101704.72;2213931;39;114203;-54
2021/05/20 05:06:00;;;;;;;;;;;;;;;21.37;48.29;101709.44;2217323;39;114917;-54
2021/05/20 05:07:32;;;;;;;;;;;;;;;21.42;48.27;101712.22;2219976;39;114983;-54
2021/05/20 05:09:05;;;;;;;;;;;;;;;21.46;48.13;101707.66;2217121;39;116407;-55
2021/05/20 05:10:37;;;;;;;;;;;;;;;21.51;48.08;101699.19;2210460;39;115812;-54
2021/05/20 05:12:08;;;;;;;;;;;;;;;21.55;47.96;101703.06;2211098;39;115501;-54
2021/05/20 05:13:40;;;;;;;;;;;;;;;21.61;47.97;101701.91;2213739;39;115609;-54
2021/05/20 05:15:12;;;;;;;;;;;;;;;21.65;47.59;101704.94;2216141;39;115505;-55
2021/05/20 05:16:43;;;;;;;;;;;;;;;21.69;47.78;101706.88;2216680;39;115494;-54
2021/05/20 05:18:15;;;;;;;;;;;;;;;21.73;47.76;101705.13;2217253;39;115637;-54
2021/05/20 05:19:47;;;;;;;;;;;;;;;21.79;48.21;101702.25;2217032;39;115092;-58
2021/05/20 05:21:18;;;;;;;;;;;;;;;21.83;48.03;101700.53;2215492;39;114743;-54
2021/05/20 05:22:50;;;;;;;;;;;;;;;21.87;47.62;101696.81;2207824;39;115812;-54
2021/05/20 05:24:22;;;;;;;;;;;;;;;21.91;47.29;101692.25;2213889;39;115588;-54
2021/05/20 05:25:54;;;;;;;;;;;;;;;21.96;46.97;101685.75;2217316;39;115919;-54
2021/05/20 05:27:25;;;;;;;;;;;;;;;21.99;46.99;101683.19;2212779;39;116805;-54
2021/05/20 05:28:59;;;;;;;;;;;;;;;22.03;46.81;101675.00;2207999;39;115627;-54
2021/05/20 05:30:31;;;;;;;;;;;;;;;22.07;46.86;101681.69;2211748;39;114625;-54
2021/05/20 05:32:03;;;;;;;;;;;;;;;22.11;46.76;101683.59;2217449;39;114148;-54
2021/05/20 05:33:34;;;;;;;;;;;;;;;22.17;46.78;101684.34;2216021;39;113731;-54
2021/05/20 05:35:06;;;;;;;;;;;;;;;22.20;46.47;101685.75;2216212;39;113739;-55
2021/05/20 05:36:40;;;;;;;;;;;;;;;22.25;46.41;101677.22;2216726;39;113818;-54
2021/05/20 05:38:13;;;;;;;;;;;;;;;22.28;46.20;101683.09;2209091;39;113678;-54
2021/05/20 05:39:45;;;;;;;;;;;;;;;22.33;46.07;101687.81;2210083;39;114126;-54
2021/05/20 05:41:17;;;;;;;;;;;;;;;22.35;46.13;101683.53;2207860;39;113845;-54
2021/05/20 05:42:48;;;;;;;;;;;;;;;22.38;45.97;101679.31;2210443;39;114129;-54
2021/05/20 05:44:21;;;;;;;;;;;;;;;22.41;45.68;101682.34;2214925;39;116130;-54
2021/05/20 05:45:52;;;;;;;;;;;;;;;22.45;45.86;101686.22;2217248;39;113613;-54
2021/05/20 05:47:24;;;;;;;;;;;;;;;22.48;45.63;101688.44;2217091;39;114027;-54
2021/05/20 05:48:59;;;;;;;;;;;;;;;22.53;45.60;101698.81;2215750;39;114705;-54
2021/05/20 05:50:31;;;;;;;;;;;;;;;22.56;45.46;101693.41;2212188;39;113863;-54
2021/05/20 05:52:06;;;;;;;;;;;;;;;22.58;45.53;101693.91;2219670;39;113586;-54
2021/05/20 05:53:37;;;;;;;;;;;;;;;22.61;45.52;101693.31;2211324;39;114355;-54
2021/05/20 05:55:09;;;;;;;;;;;;;;;22.63;45.68;101688.19;2216162;39;116847;-53
2021/05/20 05:56:41;;;;;;;;;;;;;;;22.67;45.57;101681.97;2217338;39;113825;-54
2021/05/20 05:58:20;;;;;;;;;;;;;;;22.70;45.46;101684.22;2217126;39;114681;-54
2021/05/20 05:59:51;;;;;;;;;;;;;;;22.72;45.67;101676.28;2212537;39;115220;-54
2021/05/20 06:01:23;;;;;;;;;;;;;;;22.75;46.00;101675.69;2214196;39;114226;-54
2021/05/20 06:02:55;;;;;;;;;;;;;;;22.75;45.42;101676.53;2206049;39;114877;-54
2021/05/20 06:04:27;;;;;;;;;;;;;;;22.77;45.77;101670.56;2211846;39;114758;-54
2021/05/20 06:05:59;;;;;;;;;;;;;;;22.78;45.66;101672.25;2209509;39;114741;-57
2021/05/20 06:07:35;;;;;;;;;;;;;;;22.78;45.44;101673.09;2214512;39;115008;-54
2021/05/20 06:09:07;;;;;;;;;;;;;;;22.79;45.81;101665.47;2217830;39;114231;-54
2021/05/20 06:10:39;;;;;;;;;;;;;;;22.80;45.90;101661.50;2210365;39;114133;-54
2021/05/20 06:12:11;;;;;;;;;;;;;;;22.80;46.19;101665.19;2214467;39;114819;-55
2021/05/20 06:13:42;;;;;;;;;;;;;;;22.81;46.19;101657.53;2220102;39;115267;-54
2021/05/20 06:15:14;;;;;;;;;;;;;;;22.82;46.11;101664.84;2217425;39;116248;-54
2021/05/20 06:16:46;;;;;;;;;;;;;;;22.81;45.77;101658.38;2216983;39;114540;-54
2021/05/20 06:18:18;;;;;;;;;;;;;;;22.82;45.67;101651.59;2214329;39;116004;-54
2021/05/20 06:19:49;;;;;;;;;;;;;;;22.83;45.75;101660.88;2214165;39;115553;-54
2021/05/20 06:21:21;;;;;;;;;;;;;;;22.82;46.04;101656.38;2217002;39;115836;-54
2021/05/20 06:22:54;;;;;;;;;;;;;;;22.82;46.19;101651.59;2217456;39;116402;-54
2021/05/20 06:24:26;;;;;;;;;;;;;;;22.83;45.90;101644.00;2210311;39;115577;-54
2021/05/20 06:25:57;;;;;;;;;;;;;;;22.82;46.02;101657.22;2215457;39;115519;-54
2021/05/20 06:27:29;;;;;;;;;;;;;;;22.82;45.85;101651.59;2211549;39;115646;-54
2021/05/20 06:29:01;;;;;;;;;;;;;;;22.82;45.79;101645.13;2215250;39;115912;-54
2021/05/20 06:30:33;;;;;;;;;;;;;;;22.81;45.50;101646.25;2211892;39;116634;-54
2021/05/20 06:32:05;;;;;;;;;;;;;;;22.81;45.74;101646.25;2214038;39;114624;-54
2021/05/20 06:33:37;;;;;;;;;;;;;;;22.80;45.69;101647.44;2214917;39;115517;-54
2021/05/20 06:35:08;;;;;;;;;;;;;;;22.79;45.70;101646.59;2216488;39;115777;-54
2021/05/20 06:36:40;;;;;;;;;;;;;;;22.80;45.50;101639.81;2217208;39;113910;-54
2021/05/20 06:38:12;;;;;;;;;;;;;;;22.80;45.76;101638.97;2215166;39;113696;-54
2021/05/20 06:39:44;;;;;;;;;;;;;;;22.78;45.73;101636.44;2217124;39;113811;-54
2021/05/20 06:41:16;;;;;;;;;;;;;;;22.78;45.58;101633.63;2216747;39;113911;-54
2021/05/20 06:42:48;;;;;;;;;;;;;;;22.79;45.77;101634.47;2217279;39;114164;-54
2021/05/20 06:44:19;;;;;;;;;;;;;;;22.77;46.23;101626.31;2217041;39;113727;-54
2021/05/20 06:45:51;;;;;;;;;;;;;;;22.77;46.30;101633.94;2217103;39;114112;-54
2021/05/20 06:47:24;;;;;;;;;;;;;;;22.77;46.18;101631.13;2216637;39;113689;-54
2021/05/20 06:48:57;;;;;;;;;;;;;;;22.78;46.53;101628.00;2217351;39;113797;-54
2021/05/20 06:50:29;;;;;;;;;;;;;;;22.76;45.73;101624.63;2216455;39;113561;-54
2021/05/20 06:52:01;;;;;;;;;;;;;;;22.69;44.80;101627.00;2215406;39;113896;-54
2021/05/20 06:53:35;;;;;;;;;;;;;;;22.68;45.82;101627.28;2215295;39;113548;-57
2021/05/20 06:55:07;;;;;;;;;;;;;;;22.54;40.26;101615.97;2216742;39;113801;-54
2021/05/20 06:56:41;;;;;;;;;;;;;;;22.34;37.73;101605.03;2215167;39;114235;-53
2021/05/20 07:00:04;;;;;;;;;;;;;;;21.93;36.67;101604.78;2215562;39;114821;-54
2021/05/20 07:01:35;;;;;;;;;;;;;;;21.77;36.43;101601.28;2207970;39;113902;-54
2021/05/20 07:03:14;;;;;;;;;;;;;;;21.58;36.74;101598.41;2212530;39;114142;-54
2021/05/20 07:04:46;;;;;;;;;;;;;;;21.59;36.06;101597.28;2217165;39;115264;-54
2021/05/20 07:06:18;;;;;;;;;;;;;;;21.50;36.54;101589.81;2216058;39;114561;-54
2021/05/20 07:07:50;;;;;;;;;;;;;;;21.49;38.11;101591.78;2215309;39;115007;-54
2021/05/20 07:09:21;;;;;;;;;;;;;;;21.54;37.18;101593.69;2215240;39;114816;-54
2021/05/20 07:10:57;;;;;;;;;;;;;;;21.66;37.89;101589.34;2208640;39;114525;-53
2021/05/20 07:12:29;;;;;;;;;;;;;;;21.74;38.22;101580.22;2212216;39;114021;-54
2021/05/20 07:14:00;;;;;;;;;;;;;;;21.80;38.56;101580.16;2213825;39;115327;-54
2021/05/20 07:15:32;;;;;;;;;;;;;;;21.81;38.81;101574.22;2214050;39;115115;-53
2021/05/20 07:17:05;;;;;;;;;;;;;;;21.81;38.72;101584.63;2215204;39;115268;-54
2021/05/20 07:18:36;;;;;;;;;;;;;;;21.81;38.88;101577.03;2213769;39;114777;-54
2021/05/20 07:20:08;;;;;;;;;;;;;;;21.82;38.99;101577.88;2219091;39;114660;-53
2021/05/20 07:21:40;;;;;;;;;;;;;;;21.80;39.37;101564.13;2214296;39;115471;-54
2021/05/20 07:23:13;;;;;;;;;;;;;;;21.79;39.06;101558.78;2209132;39;115593;-54
2021/05/20 07:24:45;;;;;;;;;;;;;;;21.80;38.88;101560.47;2212894;39;114478;-54
2021/05/20 07:26:17;;;;;;;;;;;;;;;21.76;39.31;101554.59;2214977;39;115658;-53
2021/05/20 07:27:49;;;;;;;;;;;;;;;21.79;39.13;101541.91;2214939;39;116381;-57
2021/05/20 07:29:20;;;;;;;;;;;;;;;21.74;39.63;101546.47;2214154;39;115688;-53
2021/05/20 07:30:52;;;;;;;;;;;;;;;21.76;39.72;101550.97;2209785;39;114564;-53
2021/05/20 07:32:25;;;;;;;;;;;;;;;21.78;39.43;101546.69;2214796;39;115803;-54
2021/05/20 07:34:02;;;;;;;;;;;;;;;21.77;39.66;101547.00;2214764;39;115620;-54
2021/05/20 07:35:34;;;;;;;;;;;;;;;21.75;39.77;101544.50;2215318;39;115366;-54
2021/05/20 07:37:07;;;;;;;;;;;;;;;21.73;39.71;101544.78;2214762;39;115548;-53
2021/05/20 07:38:39;;;;;;;;;;;;;;;21.71;39.83;101538.63;2209220;39;114694;-53
2021/05/20 07:40:11;;;;;;;;;;;;;;;21.70;39.72;101536.13;2213709;39;114389;-54
2021/05/20 07:41:45;;;;;;;;;;;;;;;21.70;39.84;101534.16;2206317;39;115542;-54
2021/05/20 07:43:21;;;;;;;;;;;;;;;21.69;40.10;101535.28;2211008;39;113997;-54
2021/05/20 07:45:11;;;;;;;;;;;;;;;21.69;39.95;101537.25;2211880;39;115974;-54
2021/05/20 07:46:43;;;;;;;;;;;;;;;21.68;39.99;101533.63;2216277;39;113710;-53
2021/05/20 07:48:15;;;;;;;;;;;;;;;21.69;39.80;101532.47;2215802;39;117051;-54
2021/05/20 07:49:50;;;;;;;;;;;;;;;21.69;40.03;101529.66;2216847;39;113750;-53
2021/05/20 07:51:23;;;;;;;;;;;;;;;21.68;40.29;101539.25;2217091;39;113787;-54
2021/05/20 07:52:54;;;;;;;;;;;;;;;21.69;40.43;101531.63;2212478;39;113922;-54
2021/05/20 07:54:28;;;;;;;;;;;;;;;21.67;40.16;101529.13;2214735;39;114067;-54
2021/05/20 07:56:01;;;;;;;;;;;;;;;21.65;40.29;101534.22;2216637;39;114197;-54
2021/05/20 07:57:32;;;;;;;;;;;;;;;21.66;40.16;101538.72;2216206;39;115052;-54
2021/05/20 07:59:04;;;;;;;;;;;;;;;21.66;40.45;101529.44;2213150;39;114045;-54
2021/05/20 08:00:36;;;;;;;;;;;;;;;21.62;40.16;101534.81;2212225;39;113732;-54